sensor_id;sensor_type;location;lat;lon;timestamp;pressure;altitude;pressure_sealevel;temperature;humidity
50672;BME280;46021;55.882;37.654;2023-12-20T00:01:42;97599.44;;;0.94;90.75
50672;BME280;46021;55.882;37.654;2023-12-20T00:04:11;97602.94;;;0.91;89.57
50672;BME280;46021;55.882;37.654;2023-12-20T00:06:40;97648.50;;;1.14;90.85
50672;BME280;46021;55.882;37.654;2023-12-20T00:09:12;97660.88;;;1.31;91.19
50672;BME280;46021;55.882;37.654;2023-12-20T00:11:40;97604.81;;;0.85;89.65
50672;BME280;46021;55.882;37.654;2023-12-20T00:14:09;97586.06;;;0.83;91.82
50672;BME280;46021;55.882;37.654;2023-12-20T00:16:37;97707.59;;;1.44;92.08
50672;BME280;46021;55.882;37.654;2023-12-20T00:19:06;97647.56;;;1.17;91.40
50672;BME280;46021;55.882;37.654;2023-12-20T00:21:34;97606.09;;;1.01;92.03
50672;BME280;46021;55.882;37.654;2023-12-20T00:24:02;97671.91;;;1.35;91.30
50672;BME280;46021;55.882;37.654;2023-12-20T00:26:35;97598.00;;;0.84;90.71
50672;BME280;46021;55.882;37.654;2023-12-20T00:29:04;97581.09;;;0.76;91.28
50672;BME280;46021;55.882;37.654;2023-12-20T00:31:36;97609.88;;;0.88;90.34
50672;BME280;46021;55.882;37.654;2023-12-20T00:34:09;97614.94;;;0.91;90.88
50672;BME280;46021;55.882;37.654;2023-12-20T00:36:37;97680.56;;;1.31;92.18
50672;BME280;46021;55.882;37.654;2023-12-20T00:39:06;97674.69;;;1.27;91.20
50672;BME280;46021;55.882;37.654;2023-12-20T00:41:43;97667.19;;;1.20;92.07
50672;BME280;46021;55.882;37.654;2023-12-20T00:44:15;97678.78;;;1.34;90.21
50672;BME280;46021;55.882;37.654;2023-12-20T00:46:43;97695.59;;;1.45;91.19
50672;BME280;46021;55.882;37.654;2023-12-20T00:49:14;97636.81;;;1.04;90.65
50672;BME280;46021;55.882;37.654;2023-12-20T00:51:46;97704.88;;;1.49;90.57
50672;BME280;46021;55.882;37.654;2023-12-20T00:54:18;97622.56;;;0.92;89.72
50672;BME280;46021;55.882;37.654;2023-12-20T00:56:54;97722.53;;;1.61;89.68
50672;BME280;46021;55.882;37.654;2023-12-20T00:59:23;97676.19;;;1.34;91.12
50672;BME280;46021;55.882;37.654;2023-12-20T01:02:07;97610.63;;;0.91;90.28
50672;BME280;46021;55.882;37.654;2023-12-20T01:05:18;97600.56;;;0.84;91.05
50672;BME280;46021;55.882;37.654;2023-12-20T01:07:49;97663.66;;;1.24;91.02
50672;BME280;46021;55.882;37.654;2023-12-20T01:10:17;97700.72;;;1.45;90.12
50672;BME280;46021;55.882;37.654;2023-12-20T01:12:46;97591.81;;;0.58;89.65
50672;BME280;46021;55.882;37.654;2023-12-20T01:15:14;97650.56;;;1.00;90.27
50672;BME280;46021;55.882;37.654;2023-12-20T01:17:41;97673.53;;;1.06;90.11
50672;BME280;46021;55.882;37.654;2023-12-20T01:20:10;97581.00;;;0.47;90.79
50672;BME280;46021;55.882;37.654;2023-12-20T01:22:38;97629.81;;;0.76;91.51
50672;BME280;46021;55.882;37.654;2023-12-20T01:25:08;97690.38;;;1.15;91.88
50672;BME280;46021;55.882;37.654;2023-12-20T01:27:43;97640.91;;;0.77;91.68
50672;BME280;46021;55.882;37.654;2023-12-20T01:30:19;97694.75;;;1.11;91.62
50672;BME280;46021;55.882;37.654;2023-12-20T01:32:47;97692.16;;;1.13;92.18
50672;BME280;46021;55.882;37.654;2023-12-20T01:35:14;97624.06;;;0.68;91.30
50672;BME280;46021;55.882;37.654;2023-12-20T01:37:42;97603.88;;;0.54;90.80
50672;BME280;46021;55.882;37.654;2023-12-20T01:40:10;97646.22;;;0.69;90.85
50672;BME280;46021;55.882;37.654;2023-12-20T01:42:48;97694.88;;;1.07;90.78
50672;BME280;46021;55.882;37.654;2023-12-20T01:45:31;97551.53;;;0.30;91.60
50672;BME280;46021;55.882;37.654;2023-12-20T01:48:02;97677.09;;;1.01;92.03
50672;BME280;46021;55.882;37.654;2023-12-20T01:50:36;97617.00;;;0.76;91.91
50672;BME280;46021;55.882;37.654;2023-12-20T01:53:05;97669.19;;;1.08;91.15
50672;BME280;46021;55.882;37.654;2023-12-20T01:55:37;97554.09;;;0.30;91.79
50672;BME280;46021;55.882;37.654;2023-12-20T01:58:07;97529.50;;;0.23;92.04
50672;BME280;46021;55.882;37.654;2023-12-20T02:00:39;97561.44;;;0.43;92.23
50672;BME280;46021;55.882;37.654;2023-12-20T02:03:09;97669.19;;;1.08;91.78
50672;BME280;46021;55.882;37.654;2023-12-20T02:05:38;97663.88;;;1.14;91.58
50672;BME280;46021;55.882;37.654;2023-12-20T02:08:07;97617.38;;;0.94;93.12
50672;BME280;46021;55.882;37.654;2023-12-20T02:10:39;97607.16;;;0.92;92.39
50672;BME280;46021;55.882;37.654;2023-12-20T02:13:08;97566.22;;;0.56;91.65
50672;BME280;46021;55.882;37.654;2023-12-20T02:15:37;97657.06;;;1.13;91.35
50672;BME280;46021;55.882;37.654;2023-12-20T02:18:06;97535.75;;;0.46;91.92
50672;BME280;46021;55.882;37.654;2023-12-20T02:20:52;97508.81;;;0.29;91.56
50672;BME280;46021;55.882;37.654;2023-12-20T02:23:29;97644.19;;;1.15;92.16
50672;BME280;46021;55.882;37.654;2023-12-20T02:29:00;97600.69;;;0.79;91.05
50672;BME280;46021;55.882;37.654;2023-12-20T02:31:34;97528.63;;;0.23;91.16
50672;BME280;46021;55.882;37.654;2023-12-20T02:34:02;97631.66;;;1.04;92.05
50672;BME280;46021;55.882;37.654;2023-12-20T02:36:32;97531.66;;;0.38;92.57
50672;BME280;46021;55.882;37.654;2023-12-20T02:39:02;97518.38;;;0.23;90.64
50672;BME280;46021;55.882;37.654;2023-12-20T02:41:31;97561.44;;;0.43;91.40
50672;BME280;46021;55.882;37.654;2023-12-20T02:44:01;97548.97;;;0.30;92.26
50672;BME280;46021;55.882;37.654;2023-12-20T02:46:29;97538.63;;;0.33;91.94
50672;BME280;46021;55.882;37.654;2023-12-20T02:48:59;97663.06;;;1.14;92.89
50672;BME280;46021;55.882;37.654;2023-12-20T02:51:30;97650.34;;;1.09;91.72
50672;BME280;46021;55.882;37.654;2023-12-20T02:53:58;97545.22;;;0.44;91.64
50672;BME280;46021;55.882;37.654;2023-12-20T02:56:29;97668.78;;;1.24;91.77
50672;BME280;46021;55.882;37.654;2023-12-20T02:59:00;97532.22;;;0.50;91.50
50672;BME280;46021;55.882;37.654;2023-12-20T03:01:31;97611.44;;;0.93;90.98
50672;BME280;46021;55.882;37.654;2023-12-20T03:03:59;97619.47;;;1.12;91.80
50672;BME280;46021;55.882;37.654;2023-12-20T03:06:30;97565.28;;;0.92;92.92
50672;BME280;46021;55.882;37.654;2023-12-20T03:09:04;97647.06;;;1.35;92.70
50672;BME280;46021;55.882;37.654;2023-12-20T03:11:33;97645.66;;;1.25;90.87
50672;BME280;46021;55.882;37.654;2023-12-20T03:14:08;97570.59;;;0.86;90.90
50672;BME280;46021;55.882;37.654;2023-12-20T03:16:42;97588.28;;;0.96;90.39
50672;BME280;46021;55.882;37.654;2023-12-20T03:19:26;97531.88;;;0.62;92.20
50672;BME280;46021;55.882;37.654;2023-12-20T03:21:58;97526.00;;;0.58;91.42
50672;BME280;46021;55.882;37.654;2023-12-20T03:24:29;97520.22;;;0.52;92.17
50672;BME280;46021;55.882;37.654;2023-12-20T03:27:01;97604.94;;;1.11;92.48
50672;BME280;46021;55.882;37.654;2023-12-20T03:29:29;97537.19;;;0.56;91.87
50672;BME280;46021;55.882;37.654;2023-12-20T03:32:00;97575.63;;;0.89;91.55
50672;BME280;46021;55.882;37.654;2023-12-20T03:34:28;97636.34;;;1.21;92.08
50672;BME280;46021;55.882;37.654;2023-12-20T03:36:57;97526.84;;;0.59;91.05
50672;BME280;46021;55.882;37.654;2023-12-20T03:39:24;97653.84;;;1.38;91.08
50672;BME280;46021;55.882;37.654;2023-12-20T03:41:52;97642.94;;;1.30;91.52
50672;BME280;46021;55.882;37.654;2023-12-20T03:44:21;97654.16;;;1.27;91.90
50672;BME280;46021;55.882;37.654;2023-12-20T03:46:49;97609.72;;;0.92;92.28
50672;BME280;46021;55.882;37.654;2023-12-20T03:49:17;97588.63;;;0.83;92.68
50672;BME280;46021;55.882;37.654;2023-12-20T03:51:44;97648.53;;;1.13;92.00
50672;BME280;46021;55.882;37.654;2023-12-20T03:54:12;97667.88;;;1.25;91.80
50672;BME280;46021;55.882;37.654;2023-12-20T03:56:40;97666.16;;;1.27;92.68
50672;BME280;46021;55.882;37.654;2023-12-20T03:59:07;97672.31;;;1.20;91.27
50672;BME280;46021;55.882;37.654;2023-12-20T04:01:37;97633.81;;;0.87;92.15
50672;BME280;46021;55.882;37.654;2023-12-20T04:04:05;97589.22;;;0.60;91.97
50672;BME280;46021;55.882;37.654;2023-12-20T04:06:35;97544.69;;;0.29;92.10
50672;BME280;46021;55.882;37.654;2023-12-20T04:09:06;97539.41;;;0.35;91.81
50672;BME280;46021;55.882;37.654;2023-12-20T04:11:36;97584.94;;;0.60;92.04
50672;BME280;46021;55.882;37.654;2023-12-20T04:14:04;97574.59;;;0.63;93.05
50672;BME280;46021;55.882;37.654;2023-12-20T04:16:34;97561.16;;;0.55;92.59
50672;BME280;46021;55.882;37.654;2023-12-20T04:19:06;97623.31;;;0.96;92.55
50672;BME280;46021;55.882;37.654;2023-12-20T04:21:34;97610.03;;;0.82;92.65
50672;BME280;46021;55.882;37.654;2023-12-20T04:24:02;97621.56;;;0.98;92.55
50672;BME280;46021;55.882;37.654;2023-12-20T04:26:29;97523.78;;;0.46;92.39
50672;BME280;46021;55.882;37.654;2023-12-20T04:28:57;97518.09;;;0.35;91.65
50672;BME280;46021;55.882;37.654;2023-12-20T04:31:24;97566.19;;;0.58;92.24
50672;BME280;46021;55.882;37.654;2023-12-20T04:33:52;97614.97;;;0.89;92.07
50672;BME280;46021;55.882;37.654;2023-12-20T04:36:21;97586.38;;;0.70;92.60
50672;BME280;46021;55.882;37.654;2023-12-20T04:38:49;97616.50;;;0.96;93.04
50672;BME280;46021;55.882;37.654;2023-12-20T04:41:17;97613.47;;;0.81;91.81
50672;BME280;46021;55.882;37.654;2023-12-20T04:43:45;97616.75;;;0.86;90.80
50672;BME280;46021;55.882;37.654;2023-12-20T04:46:15;97668.59;;;1.30;92.58
50672;BME280;46021;55.882;37.654;2023-12-20T04:48:46;97594.75;;;0.77;91.39
50672;BME280;46021;55.882;37.654;2023-12-20T04:51:13;97668.84;;;1.21;91.99
50672;BME280;46021;55.882;37.654;2023-12-20T04:53:45;97674.72;;;1.26;91.42
50672;BME280;46021;55.882;37.654;2023-12-20T04:56:15;97589.81;;;0.69;90.41
50672;BME280;46021;55.882;37.654;2023-12-20T04:58:43;97620.09;;;0.89;91.42
50672;BME280;46021;55.882;37.654;2023-12-20T05:01:13;97681.78;;;1.17;90.89
50672;BME280;46021;55.882;37.654;2023-12-20T05:03:40;97678.13;;;1.26;90.54
50672;BME280;46021;55.882;37.654;2023-12-20T05:06:09;97562.16;;;0.49;90.45
50672;BME280;46021;55.882;37.654;2023-12-20T05:08:52;97557.84;;;0.50;89.92
50672;BME280;46021;55.882;37.654;2023-12-20T05:11:20;97579.66;;;0.66;91.57
50672;BME280;46021;55.882;37.654;2023-12-20T05:13:48;97628.56;;;0.93;89.79
50672;BME280;46021;55.882;37.654;2023-12-20T05:16:18;97570.53;;;0.54;89.50
50672;BME280;46021;55.882;37.654;2023-12-20T05:18:48;97611.63;;;0.86;91.28
50672;BME280;46021;55.882;37.654;2023-12-20T05:21:18;97669.44;;;1.30;90.50
50672;BME280;46021;55.882;37.654;2023-12-20T05:23:49;97649.50;;;1.09;90.79
50672;BME280;46021;55.882;37.654;2023-12-20T05:26:16;97688.94;;;1.38;90.31
50672;BME280;46021;55.882;37.654;2023-12-20T05:28:44;97611.88;;;0.76;90.63
50672;BME280;46021;55.882;37.654;2023-12-20T05:31:12;97602.34;;;0.82;90.90
50672;BME280;46021;55.882;37.654;2023-12-20T05:33:45;97692.53;;;1.30;91.53
50672;BME280;46021;55.882;37.654;2023-12-20T05:36:13;97676.22;;;1.00;90.03
50672;BME280;46021;55.882;37.654;2023-12-20T05:38:41;97715.06;;;1.19;90.71
50672;BME280;46021;55.882;37.654;2023-12-20T05:41:10;97596.50;;;0.42;90.03
50672;BME280;46021;55.882;37.654;2023-12-20T05:43:38;97653.94;;;0.69;88.93
50672;BME280;46021;55.882;37.654;2023-12-20T05:46:06;97662.59;;;0.64;90.36
50672;BME280;46021;55.882;37.654;2023-12-20T05:48:34;97623.03;;;0.39;89.06
50672;BME280;46021;55.882;37.654;2023-12-20T05:51:04;97695.31;;;0.90;89.45
50672;BME280;46021;55.882;37.654;2023-12-20T05:53:32;97703.88;;;0.89;90.28
50672;BME280;46021;55.882;37.654;2023-12-20T05:56:00;97706.53;;;0.86;90.60
50672;BME280;46021;55.882;37.654;2023-12-20T05:58:29;97651.53;;;0.63;89.91
50672;BME280;46021;55.882;37.654;2023-12-20T06:00:59;97654.13;;;0.62;90.13
50672;BME280;46021;55.882;37.654;2023-12-20T06:03:27;97641.19;;;0.66;91.83
50672;BME280;46021;55.882;37.654;2023-12-20T06:05:56;97597.56;;;0.33;91.46
50672;BME280;46021;55.882;37.654;2023-12-20T06:08:29;97697.75;;;0.94;90.35
50672;BME280;46021;55.882;37.654;2023-12-20T06:10:57;97670.81;;;0.78;90.28
50672;BME280;46021;55.882;37.654;2023-12-20T06:13:26;97635.22;;;0.66;91.45
50672;BME280;46021;55.882;37.654;2023-12-20T06:15:55;97703.56;;;1.01;90.67
50672;BME280;46021;55.882;37.654;2023-12-20T06:18:23;97679.16;;;0.86;90.63
50672;BME280;46021;55.882;37.654;2023-12-20T06:20:54;97595.03;;;0.32;89.84
50672;BME280;46021;55.882;37.654;2023-12-20T06:23:25;97602.41;;;0.46;90.67
50672;BME280;46021;55.882;37.654;2023-12-20T06:25:54;97645.81;;;0.86;91.37
50672;BME280;46021;55.882;37.654;2023-12-20T06:28:21;97590.19;;;0.55;90.29
50672;BME280;46021;55.882;37.654;2023-12-20T06:30:50;97714.06;;;1.25;90.18
50672;BME280;46021;55.882;37.654;2023-12-20T06:33:23;97722.28;;;1.39;91.28
50672;BME280;46021;55.882;37.654;2023-12-20T06:35:51;97609.31;;;0.76;91.16
50672;BME280;46021;55.882;37.654;2023-12-20T06:38:20;97682.59;;;1.20;91.41
50672;BME280;46021;55.882;37.654;2023-12-20T06:40:51;97648.72;;;1.05;89.91
50672;BME280;46021;55.882;37.654;2023-12-20T06:43:19;97608.34;;;0.81;90.18
50672;BME280;46021;55.882;37.654;2023-12-20T06:45:46;97715.13;;;1.50;89.93
50672;BME280;46021;55.882;37.654;2023-12-20T06:48:14;97650.09;;;1.19;89.84
50672;BME280;46021;55.882;37.654;2023-12-20T06:50:45;97657.81;;;1.17;89.47
50672;BME280;46021;55.882;37.654;2023-12-20T06:53:16;97603.72;;;0.93;90.66
50672;BME280;46021;55.882;37.654;2023-12-20T06:55:53;97739.25;;;1.76;91.27
50672;BME280;46021;55.882;37.654;2023-12-20T06:58:22;97661.63;;;1.35;89.44
50672;BME280;46021;55.882;37.654;2023-12-20T07:00:50;97718.03;;;1.69;90.92
50672;BME280;46021;55.882;37.654;2023-12-20T07:03:19;97653.38;;;1.24;90.54
50672;BME280;46021;55.882;37.654;2023-12-20T07:05:51;97637.47;;;1.11;88.56
50672;BME280;46021;55.882;37.654;2023-12-20T07:08:22;97725.34;;;1.83;91.23
50672;BME280;46021;55.882;37.654;2023-12-20T07:10:52;97737.31;;;1.84;91.02
50672;BME280;46021;55.882;37.654;2023-12-20T07:13:20;97627.25;;;1.09;88.81
50672;BME280;46021;55.882;37.654;2023-12-20T07:15:48;97606.69;;;1.11;90.72
50672;BME280;46021;55.882;37.654;2023-12-20T07:18:18;97632.44;;;1.08;89.67
50672;BME280;46021;55.882;37.654;2023-12-20T07:20:45;97669.97;;;1.43;89.09
50672;BME280;46021;55.882;37.654;2023-12-20T07:23:17;97744.16;;;1.85;90.67
50672;BME280;46021;55.882;37.654;2023-12-20T07:25:47;97657.25;;;1.39;89.90
50672;BME280;46021;55.882;37.654;2023-12-20T07:28:14;97621.41;;;1.04;88.86
50672;BME280;46021;55.882;37.654;2023-12-20T07:30:42;97611.97;;;1.05;87.21
50672;BME280;46021;55.882;37.654;2023-12-20T07:33:10;97622.91;;;1.11;89.28
50672;BME280;46021;55.882;37.654;2023-12-20T07:36:08;97633.03;;;1.17;89.43
50672;BME280;46021;55.882;37.654;2023-12-20T07:38:54;97743.25;;;1.86;89.52
50672;BME280;46021;55.882;37.654;2023-12-20T07:41:41;97704.63;;;1.58;89.48
50672;BME280;46021;55.882;37.654;2023-12-20T07:44:13;97630.75;;;1.07;88.76
50672;BME280;46021;55.882;37.654;2023-12-20T07:46:48;97687.13;;;1.41;87.17
50672;BME280;46021;55.882;37.654;2023-12-20T07:49:22;97644.22;;;1.13;87.61
50672;BME280;46021;55.882;37.654;2023-12-20T07:51:53;97698.09;;;1.48;88.58
50672;BME280;46021;55.882;37.654;2023-12-20T07:54:24;97637.38;;;1.15;89.28
50672;BME280;46021;55.882;37.654;2023-12-20T07:56:52;97735.97;;;1.71;88.43
50672;BME280;46021;55.882;37.654;2023-12-20T07:59:21;97752.75;;;1.83;88.84
50672;BME280;46021;55.882;37.654;2023-12-20T08:01:49;97620.63;;;1.02;87.05
50672;BME280;46021;55.882;37.654;2023-12-20T08:04:17;97624.91;;;1.00;86.03
50672;BME280;46021;55.882;37.654;2023-12-20T08:06:48;97739.09;;;1.82;88.91
50672;BME280;46021;55.882;37.654;2023-12-20T08:09:17;97641.41;;;1.23;88.40
50672;BME280;46021;55.882;37.654;2023-12-20T08:11:52;97650.63;;;1.30;87.83
50672;BME280;46021;55.882;37.654;2023-12-20T08:14:23;97654.72;;;1.37;86.53
50672;BME280;46021;55.882;37.654;2023-12-20T08:17:02;97657.78;;;1.51;88.04
50672;BME280;46021;55.882;37.654;2023-12-20T08:19:30;97713.72;;;2.01;86.18
50672;BME280;46021;55.882;37.654;2023-12-20T08:22:00;97646.53;;;1.55;87.08
50672;BME280;46021;55.882;37.654;2023-12-20T08:24:29;97633.16;;;1.44;84.31
50672;BME280;46021;55.882;37.654;2023-12-20T08:27:04;97721.69;;;1.92;85.80
50672;BME280;46021;55.882;37.654;2023-12-20T08:29:39;97771.03;;;2.33;86.27
50672;BME280;46021;55.882;37.654;2023-12-20T08:32:07;97645.88;;;1.47;85.30
50672;BME280;46021;55.882;37.654;2023-12-20T08:34:39;97663.22;;;1.70;86.94
50672;BME280;46021;55.882;37.654;2023-12-20T08:37:08;97758.78;;;2.41;86.53
50672;BME280;46021;55.882;37.654;2023-12-20T08:39:37;97687.44;;;1.91;86.69
50672;BME280;46021;55.882;37.654;2023-12-20T08:42:07;97769.38;;;2.30;84.36
50672;BME280;46021;55.882;37.654;2023-12-20T08:44:40;97737.28;;;2.16;86.72
50672;BME280;46021;55.882;37.654;2023-12-20T08:47:07;97616.53;;;1.56;85.29
50672;BME280;46021;55.882;37.654;2023-12-20T08:49:41;97630.50;;;1.75;86.98
50672;BME280;46021;55.882;37.654;2023-12-20T08:52:09;97648.19;;;1.86;86.99
50672;BME280;46021;55.882;37.654;2023-12-20T08:54:37;97699.59;;;2.14;84.88
50672;BME280;46021;55.882;37.654;2023-12-20T08:57:07;97614.72;;;1.60;83.88
50672;BME280;46021;55.882;37.654;2023-12-20T08:59:35;97697.13;;;2.11;85.90
50672;BME280;46021;55.882;37.654;2023-12-20T09:02:06;97761.41;;;2.40;85.58
50672;BME280;46021;55.882;37.654;2023-12-20T09:04:35;97620.69;;;1.60;85.63
50672;BME280;46021;55.882;37.654;2023-12-20T09:07:05;97591.97;;;1.47;83.87
50672;BME280;46021;55.882;37.654;2023-12-20T09:09:34;97620.19;;;1.77;86.60
50672;BME280;46021;55.882;37.654;2023-12-20T09:12:01;97635.53;;;1.80;84.69
50672;BME280;46021;55.882;37.654;2023-12-20T09:14:32;97731.31;;;2.43;86.08
50672;BME280;46021;55.882;37.654;2023-12-20T09:17:00;97615.03;;;1.79;86.51
50672;BME280;46021;55.882;37.654;2023-12-20T09:19:29;97612.81;;;1.66;87.12
50672;BME280;46021;55.882;37.654;2023-12-20T09:21:58;97671.38;;;2.13;87.48
50672;BME280;46021;55.882;37.654;2023-12-20T09:24:30;97696.34;;;2.38;87.69
50672;BME280;46021;55.882;37.654;2023-12-20T09:26:58;97688.09;;;2.26;86.80
50672;BME280;46021;55.882;37.654;2023-12-20T09:29:26;97721.66;;;2.51;87.63
50672;BME280;46021;55.882;37.654;2023-12-20T09:32:04;97742.34;;;2.47;86.47
50672;BME280;46021;55.882;37.654;2023-12-20T09:34:37;97685.94;;;2.14;84.97
50672;BME280;46021;55.882;37.654;2023-12-20T09:37:17;97754.22;;;2.51;84.96
50672;BME280;46021;55.882;37.654;2023-12-20T09:39:46;97611.66;;;1.77;87.20
50672;BME280;46021;55.882;37.654;2023-12-20T09:42:22;97620.72;;;1.59;86.93
50672;BME280;46021;55.882;37.654;2023-12-20T09:45:00;97718.53;;;2.12;85.94
50672;BME280;46021;55.882;37.654;2023-12-20T09:47:32;97751.22;;;2.37;87.22
50672;BME280;46021;55.882;37.654;2023-12-20T09:50:01;97615.47;;;1.63;87.45
50672;BME280;46021;55.882;37.654;2023-12-20T09:52:32;97699.69;;;2.11;87.28
50672;BME280;46021;55.882;37.654;2023-12-20T09:55:03;97616.84;;;1.45;87.37
50672;BME280;46021;55.882;37.654;2023-12-20T09:57:32;97685.63;;;1.95;87.66
50672;BME280;46021;55.882;37.654;2023-12-20T09:59:59;97631.28;;;1.49;85.83
50672;BME280;46021;55.882;37.654;2023-12-20T10:02:27;97698.56;;;1.92;85.72
50672;BME280;46021;55.882;37.654;2023-12-20T10:05:01;97725.03;;;2.24;87.56
50672;BME280;46021;55.882;37.654;2023-12-20T10:07:30;97654.56;;;1.73;87.69
50672;BME280;46021;55.882;37.654;2023-12-20T10:09:58;97679.59;;;1.96;87.97
50672;BME280;46021;55.882;37.654;2023-12-20T10:12:30;97625.19;;;1.53;87.81
50672;BME280;46021;55.882;37.654;2023-12-20T10:14:58;97665.66;;;1.75;86.60
50672;BME280;46021;55.882;37.654;2023-12-20T10:17:27;97630.13;;;1.60;87.37
50672;BME280;46021;55.882;37.654;2023-12-20T10:19:56;97675.28;;;1.97;87.38
50672;BME280;46021;55.882;37.654;2023-12-20T10:22:26;97675.47;;;1.90;86.12
50672;BME280;46021;55.882;37.654;2023-12-20T10:24:59;97752.03;;;2.39;87.49
50672;BME280;46021;55.882;37.654;2023-12-20T10:27:28;97700.34;;;2.18;88.20
50672;BME280;46021;55.882;37.654;2023-12-20T10:30:06;97625.19;;;1.53;87.07
50672;BME280;46021;55.882;37.654;2023-12-20T10:32:39;97632.75;;;1.58;87.86
50672;BME280;46021;55.882;37.654;2023-12-20T10:35:09;97708.41;;;2.06;87.04
50672;BME280;46021;55.882;37.654;2023-12-20T10:37:39;97768.13;;;2.44;87.91
50672;BME280;46021;55.882;37.654;2023-12-20T10:40:09;97708.56;;;2.01;87.24
50672;BME280;46021;55.882;37.654;2023-12-20T10:42:47;97597.19;;;1.44;88.00
50672;BME280;46021;55.882;37.654;2023-12-20T10:45:20;97689.47;;;2.10;88.53
50672;BME280;46021;55.882;37.654;2023-12-20T10:47:52;97661.84;;;1.88;87.65
50672;BME280;46021;55.882;37.654;2023-12-20T10:50:31;97705.81;;;2.07;87.54
50672;BME280;46021;55.882;37.654;2023-12-20T10:53:09;97650.84;;;1.83;87.80
50672;BME280;46021;55.882;37.654;2023-12-20T10:55:38;97593.56;;;1.51;87.82
50672;BME280;46021;55.882;37.654;2023-12-20T10:58:07;97694.88;;;2.01;85.63
50672;BME280;46021;55.882;37.654;2023-12-20T11:00:45;97692.06;;;2.10;87.69
50672;BME280;46021;55.882;37.654;2023-12-20T11:03:25;97649.25;;;1.79;87.55
50672;BME280;46021;55.882;37.654;2023-12-20T11:06:03;97597.31;;;1.40;86.57
50672;BME280;46021;55.882;37.654;2023-12-20T11:08:38;97655.03;;;1.87;86.90
50672;BME280;46021;55.882;37.654;2023-12-20T11:11:14;97589.47;;;1.46;88.12
50672;BME280;46021;55.882;37.654;2023-12-20T11:13:53;97733.03;;;2.43;87.70
50672;BME280;46021;55.882;37.654;2023-12-20T11:16:27;97668.22;;;2.05;87.94
50672;BME280;46021;55.882;37.654;2023-12-20T11:19:05;97617.81;;;1.71;87.68
50672;BME280;46021;55.882;37.654;2023-12-20T11:21:36;97566.03;;;1.56;88.03
50672;BME280;46021;55.882;37.654;2023-12-20T11:24:11;97660.63;;;2.00;87.61
50672;BME280;46021;55.882;37.654;2023-12-20T11:26:46;97577.94;;;1.59;88.68
50672;BME280;46021;55.882;37.654;2023-12-20T11:29:31;97648.94;;;1.90;86.79
50672;BME280;46021;55.882;37.654;2023-12-20T11:32:29;97675.00;;;2.06;86.00
50672;BME280;46021;55.882;37.654;2023-12-20T11:35:16;97698.38;;;2.26;87.86
50672;BME280;46021;55.882;37.654;2023-12-20T11:37:48;97606.41;;;1.51;87.67
50672;BME280;46021;55.882;37.654;2023-12-20T11:40:35;97746.63;;;2.48;88.60
50672;BME280;46021;55.882;37.654;2023-12-20T11:46:59;97608.25;;;1.46;88.12
50672;BME280;46021;55.882;37.654;2023-12-20T11:52:47;97697.47;;;2.01;87.64
50672;BME280;46021;55.882;37.654;2023-12-20T11:55:16;97728.41;;;2.26;87.51
50672;BME280;46021;55.882;37.654;2023-12-20T11:57:50;97692.63;;;1.90;86.34
50672;BME280;46021;55.882;37.654;2023-12-20T12:00:19;97643.16;;;1.53;87.36
50672;BME280;46021;55.882;37.654;2023-12-20T12:02:57;97760.75;;;2.33;87.16
50672;BME280;46021;55.882;37.654;2023-12-20T12:05:26;97701.50;;;2.08;86.92
50672;BME280;46021;55.882;37.654;2023-12-20T12:07:53;97763.94;;;2.41;86.16
50672;BME280;46021;55.882;37.654;2023-12-20T12:10:22;97603.22;;;1.43;87.18
50672;BME280;46021;55.882;37.654;2023-12-20T12:12:52;97635.00;;;1.69;87.53
50672;BME280;46021;55.882;37.654;2023-12-20T12:15:22;97616.25;;;1.35;86.73
50672;BME280;46021;55.882;37.654;2023-12-20T12:17:53;97598.59;;;1.25;87.23
50672;BME280;46021;55.882;37.654;2023-12-20T12:20:23;97772.06;;;2.27;88.01
50672;BME280;46021;55.882;37.654;2023-12-20T12:23:04;97617.66;;;1.16;85.67
50672;BME280;46021;55.882;37.654;2023-12-20T12:25:34;97784.06;;;2.27;87.51
50672;BME280;46021;55.882;37.654;2023-12-20T12:28:05;97775.44;;;2.29;87.72
50672;BME280;46021;55.882;37.654;2023-12-20T12:30:33;97598.81;;;1.17;86.36
50672;BME280;46021;55.882;37.654;2023-12-20T12:33:03;97777.41;;;2.21;86.18
50672;BME280;46021;55.882;37.654;2023-12-20T12:35:31;97691.38;;;1.73;87.84
50672;BME280;46021;55.882;37.654;2023-12-20T12:37:59;97774.88;;;2.20;87.89
50672;BME280;46021;55.882;37.654;2023-12-20T12:40:29;97805.75;;;2.18;87.94
50672;BME280;46021;55.882;37.654;2023-12-20T12:42:56;97641.56;;;1.18;87.27
50672;BME280;46021;55.882;37.654;2023-12-20T12:45:27;97805.78;;;2.17;87.70
50672;BME280;46021;55.882;37.654;2023-12-20T12:47:57;97731.09;;;1.62;85.66
50672;BME280;46021;55.882;37.654;2023-12-20T12:50:25;97822.28;;;2.08;86.08
50672;BME280;46021;55.882;37.654;2023-12-20T12:53:13;97768.31;;;1.78;87.41
50672;BME280;46021;55.882;37.654;2023-12-20T12:55:41;97818.59;;;2.18;86.96
50672;BME280;46021;55.882;37.654;2023-12-20T12:58:09;97812.00;;;2.08;86.96
50672;BME280;46021;55.882;37.654;2023-12-20T13:00:45;97687.47;;;1.29;85.68
50672;BME280;46021;55.882;37.654;2023-12-20T13:03:15;97692.75;;;1.23;86.52
50672;BME280;46021;55.882;37.654;2023-12-20T13:05:51;97754.81;;;1.70;87.77
50672;BME280;46021;55.882;37.654;2023-12-20T13:08:25;97684.03;;;1.28;88.30
50672;BME280;46021;55.882;37.654;2023-12-20T13:11:00;97674.09;;;1.17;87.76
50672;BME280;46021;55.882;37.654;2023-12-20T13:13:30;97745.44;;;1.69;88.20
50672;BME280;46021;55.882;37.654;2023-12-20T13:16:05;97759.53;;;1.54;87.42
50672;BME280;46021;55.882;37.654;2023-12-20T13:18:36;97800.38;;;1.94;88.40
50672;BME280;46021;55.882;37.654;2023-12-20T13:21:19;97637.38;;;0.81;88.83
50672;BME280;46021;55.882;37.654;2023-12-20T13:23:48;97749.78;;;1.67;89.25
50672;BME280;46021;55.882;37.654;2023-12-20T13:26:42;97710.47;;;1.32;89.52
50672;BME280;46021;55.882;37.654;2023-12-20T13:29:11;97670.09;;;1.06;88.80
50672;BME280;46021;55.882;37.654;2023-12-20T13:31:45;97810.78;;;1.91;88.86